Time;durP1;ratioP1;P1;durP2;ratioP2;P2;SDS_P1;SDS_P2;PMS_P1;PMS_P2;Temp;Humidity;BMP_temperature;BMP_pressure;BME280_temperature;BME280_humidity;BME280_pressure;Samples;Min_cycle;Max_cycle;Signal;HPM_P1;HPM_P2
2023/03/13 00:01:29;;;;;;;7.47;2.70;;;9.00;99.90;;;;;;5029119;28;20182;-31
2023/03/13 00:03:55;;;;;;;8.77;2.63;;;8.90;99.90;;;;;;5031621;28;20240;-31
2023/03/13 00:06:22;;;;;;;10.90;2.63;;;8.90;99.90;;;;;;5032188;28;20175;-31
2023/03/13 00:08:48;;;;;;;7.30;2.20;;;8.90;99.90;;;;;;5014692;28;20583;-31
2023/03/13 00:11:14;;;;;;;9.47;2.30;;;8.90;99.90;;;;;;5049191;28;20196;-31
2023/03/13 00:13:41;;;;;;;5.50;1.90;;;8.90;99.90;;;;;;5032877;28;20195;-31
2023/03/13 00:16:10;;;;;;;8.13;1.77;;;8.80;99.90;;;;;;5027190;28;20285;-32
2023/03/13 00:18:36;;;;;;;6.33;2.33;;;8.80;99.90;;;;;;5036068;28;20174;-32
2023/03/13 00:21:05;;;;;;;8.40;2.17;;;8.80;99.90;;;;;;5051251;28;20196;-32
2023/03/13 00:23:33;;;;;;;8.67;2.03;;;8.80;99.90;;;;;;5018114;28;20208;-31
2023/03/13 00:26:00;;;;;;;5.83;2.10;;;8.80;99.90;;;;;;5021750;28;20316;-32
2023/03/13 00:28:28;;;;;;;8.90;2.47;;;8.80;99.90;;;;;;5053653;28;20182;-32
2023/03/13 00:31:10;;;;;;;8.57;2.17;;;8.80;99.90;;;;;;5034916;28;20178;-32
2023/03/13 00:33:39;;;;;;;5.30;1.90;;;8.80;99.90;;;;;;5025652;28;20294;-32
2023/03/13 00:36:11;;;;;;;4.10;1.83;;;8.90;99.90;;;;;;5054240;28;20213;-31
2023/03/13 00:38:37;;;;;;;6.23;2.07;;;8.90;99.90;;;;;;5019235;28;20179;-31
2023/03/13 00:41:11;;;;;;;4.63;1.40;;;9.00;99.90;;;;;;5049096;28;20186;-32
2023/03/13 00:43:38;;;;;;;5.90;2.00;;;9.00;99.90;;;;;;5009510;28;20225;-31
2023/03/13 00:46:04;;;;;;;8.63;2.17;;;9.00;99.90;;;;;;5027070;28;20263;-31
2023/03/13 00:48:30;;;;;;;9.07;1.87;;;9.10;99.90;;;;;;5034284;28;20274;-31
2023/03/13 00:50:56;;;;;;;5.67;2.03;;;9.10;99.90;;;;;;5032066;28;20178;-31
2023/03/13 00:53:22;;;;;;;6.77;2.23;;;9.00;99.90;;;;;;5048195;28;20205;-31
2023/03/13 00:56:00;;;;;;;5.30;2.87;;;9.10;99.90;;;;;;5035009;28;20209;-31
2023/03/13 00:58:28;;;;;;;4.73;2.13;;;9.10;99.90;;;;;;5032093;28;20174;-31
2023/03/13 01:00:54;;;;;;;8.93;2.60;;;9.10;99.90;;;;;;5025305;28;20166;-31
2023/03/13 01:03:24;;;;;;;6.13;2.20;;;9.10;99.90;;;;;;5051973;28;20197;-31
2023/03/13 01:05:57;;;;;;;6.73;2.30;;;9.10;99.90;;;;;;5035271;28;20186;-32
2023/03/13 01:08:26;;;;;;;5.20;2.17;;;9.00;99.90;;;;;;5035764;28;20189;-31
2023/03/13 01:10:59;;;;;;;5.33;2.20;;;9.00;99.90;;;;;;5018486;28;20177;-32
2023/03/13 01:13:26;;;;;;;4.57;1.70;;;8.90;99.90;;;;;;5008351;28;20213;-31
2023/03/13 01:15:51;;;;;;;4.50;1.53;;;8.90;99.90;;;;;;5019386;28;20205;-31
2023/03/13 01:18:18;;;;;;;5.33;2.00;;;8.90;99.90;;;;;;5034650;28;20265;-31
2023/03/13 01:20:44;;;;;;;5.83;1.93;;;8.90;99.90;;;;;;5038544;28;20189;-31
2023/03/13 01:23:09;;;;;;;4.00;1.67;;;8.80;99.90;;;;;;5039969;28;20178;-31
2023/03/13 01:25:37;;;;;;;6.77;1.90;;;8.80;99.90;;;;;;5021521;28;20190;-31
2023/03/13 01:28:03;;;;;;;6.10;1.70;;;8.80;99.90;;;;;;5022530;28;20205;-32
2023/03/13 01:30:29;;;;;;;6.33;1.90;;;8.80;99.90;;;;;;5038735;28;20182;-32
2023/03/13 01:32:55;;;;;;;4.27;1.90;;;8.80;99.90;;;;;;5035470;28;20193;-32
2023/03/13 01:35:22;;;;;;;4.53;1.80;;;8.80;99.90;;;;;;5036205;28;20214;-31
2023/03/13 01:37:47;;;;;;;5.87;1.60;;;8.70;99.90;;;;;;5041015;28;20388;-32
2023/03/13 01:40:14;;;;;;;6.63;1.73;;;8.70;99.90;;;;;;5023632;28;20276;-32
2023/03/13 01:42:58;;;;;;;6.63;1.80;;;8.70;99.90;;;;;;5024051;28;20273;-32
2023/03/13 01:45:51;;;;;;;5.80;1.80;;;8.60;99.90;;;;;;5012969;28;20210;-32
2023/03/13 01:48:19;;;;;;;7.77;2.00;;;8.60;99.90;;;;;;5015306;28;20185;-32
2023/03/13 01:50:48;;;;;;;5.10;1.50;;;8.60;99.90;;;;;;5013618;28;20210;-31
2023/03/13 01:53:22;;;;;;;4.03;1.47;;;8.60;99.90;;;;;;5032489;28;20198;-31
2023/03/13 01:55:50;;;;;;;3.90;1.87;;;8.50;99.90;;;;;;5031901;28;20197;-31
2023/03/13 01:58:16;;;;;;;5.40;1.90;;;8.50;99.90;;;;;;5044843;28;20204;-31
2023/03/13 02:00:42;;;;;;;5.20;1.80;;;8.50;99.90;;;;;;5024999;28;20226;-31
2023/03/13 02:03:13;;;;;;;5.93;2.00;;;8.50;99.90;;;;;;5033281;28;20170;-32
2023/03/13 02:05:41;;;;;;;5.43;1.83;;;8.50;99.90;;;;;;5034124;28;20177;-30
2023/03/13 02:08:29;;;;;;;5.80;2.00;;;8.50;99.90;;;;;;5051307;28;20192;-32
2023/03/13 02:11:20;;;;;;;6.67;2.50;;;8.50;99.90;;;;;;5033400;28;20186;-31
2023/03/13 02:13:50;;;;;;;6.73;1.90;;;8.50;99.90;;;;;;5030553;28;20276;-31
2023/03/13 02:16:17;;;;;;;4.13;1.50;;;8.50;99.90;;;;;;5034477;28;20245;-31
2023/03/13 02:18:47;;;;;;;5.03;1.90;;;8.60;99.90;;;;;;5035384;28;20179;-31
2023/03/13 02:21:31;;;;;;;5.07;1.67;;;8.70;99.90;;;;;;5029837;28;20193;-31
2023/03/13 02:24:16;;;;;;;4.53;1.60;;;8.80;99.90;;;;;;5011420;28;20195;-31
2023/03/13 02:26:42;;;;;;;3.13;1.37;;;8.80;99.90;;;;;;5030405;28;20182;-32
2023/03/13 02:29:17;;;;;;;3.60;1.33;;;8.80;99.90;;;;;;5032822;28;20174;-31
2023/03/13 02:31:45;;;;;;;6.07;1.80;;;8.90;99.90;;;;;;5033390;28;20178;-32
2023/03/13 02:34:14;;;;;;;3.43;1.80;;;9.00;99.90;;;;;;5050737;28;20299;-32
2023/03/13 02:36:41;;;;;;;3.40;1.40;;;9.10;99.90;;;;;;5033626;28;20174;-32
2023/03/13 02:39:10;;;;;;;4.83;1.53;;;9.20;99.90;;;;;;5000570;28;20182;-32
2023/03/13 02:41:36;;;;;;;2.43;1.57;;;9.20;99.90;;;;;;5025248;28;20177;-32
2023/03/13 02:44:04;;;;;;;6.17;1.70;;;9.30;99.90;;;;;;5013254;28;20233;-32
2023/03/13 02:46:31;;;;;;;7.03;1.90;;;9.30;99.90;;;;;;5014380;28;20178;-32
2023/03/13 02:48:58;;;;;;;5.13;2.20;;;9.40;99.90;;;;;;5033701;28;20205;-33
2023/03/13 02:51:38;;;;;;;5.53;2.10;;;9.50;99.90;;;;;;5037652;28;20174;-32
2023/03/13 02:54:08;;;;;;;3.67;1.30;;;9.50;99.90;;;;;;5020573;28;20221;-32
2023/03/13 02:56:39;;;;;;;5.37;1.37;;;9.60;99.90;;;;;;5051758;28;20225;-32
2023/03/13 02:59:06;;;;;;;5.70;1.30;;;9.70;99.90;;;;;;5033356;28;20274;-32
2023/03/13 03:01:33;;;;;;;3.53;1.20;;;9.70;99.90;;;;;;5048623;28;20182;-32
2023/03/13 03:04:00;;;;;;;2.37;1.23;;;9.70;99.90;;;;;;5030744;28;20320;-31
2023/03/13 03:06:26;;;;;;;3.50;1.47;;;9.80;99.90;;;;;;5033402;28;20261;-32
2023/03/13 03:08:52;;;;;;;3.33;1.00;;;9.80;99.90;;;;;;5033301;28;20642;-32
2023/03/13 03:11:18;;;;;;;3.27;1.13;;;9.90;99.90;;;;;;5015952;28;20231;-32
2023/03/13 03:13:48;;;;;;;2.67;1.10;;;9.90;99.90;;;;;;5033156;28;20213;-33
2023/03/13 03:16:19;;;;;;;3.73;1.40;;;9.90;99.90;;;;;;5020359;28;20293;-31
2023/03/13 03:18:45;;;;;;;3.77;1.00;;;10.00;99.90;;;;;;5030137;28;20186;-32
2023/03/13 03:21:11;;;;;;;3.43;1.10;;;10.10;99.90;;;;;;5021208;28;20184;-32
2023/03/13 03:23:38;;;;;;;4.07;1.00;;;10.10;99.90;;;;;;5033122;28;20205;-32
2023/03/13 03:26:06;;;;;;;1.90;1.00;;;10.20;99.90;;;;;;5032664;28;20190;-32
2023/03/13 03:28:32;;;;;;;2.47;1.20;;;10.20;99.90;;;;;;5032295;28;20277;-32
2023/03/13 03:31:04;;;;;;;4.27;1.07;;;10.20;99.90;;;;;;5031276;28;20203;-32
2023/03/13 03:33:31;;;;;;;1.97;0.90;;;10.20;99.90;;;;;;5049174;28;20751;-32
2023/03/13 03:36:02;;;;;;;1.63;0.83;;;10.20;99.90;;;;;;5022893;28;20210;-32
2023/03/13 03:38:29;;;;;;;2.53;0.83;;;10.20;99.90;;;;;;5033005;28;20184;-32
2023/03/13 03:40:55;;;;;;;2.50;1.00;;;10.20;99.90;;;;;;5028664;28;20190;-31
2023/03/13 03:43:21;;;;;;;2.03;1.20;;;10.10;99.90;;;;;;5032825;28;20221;-32
2023/03/13 03:45:47;;;;;;;3.20;1.00;;;10.20;99.90;;;;;;5016015;28;20181;-32
2023/03/13 03:48:13;;;;;;;1.40;1.00;;;10.10;99.90;;;;;;5032289;28;20212;-32
2023/03/13 03:50:39;;;;;;;3.67;1.10;;;10.20;99.90;;;;;;5033032;28;20209;-32
2023/03/13 03:53:05;;;;;;;1.53;1.00;;;10.10;99.90;;;;;;5020580;28;20213;-32
2023/03/13 03:55:31;;;;;;;4.87;1.00;;;10.10;99.90;;;;;;5024940;28;20202;-31
2023/03/13 03:57:57;;;;;;;1.57;1.30;;;10.10;99.90;;;;;;5013050;28;20182;-32
2023/03/13 04:00:45;;;;;;;2.93;1.70;;;10.10;99.90;;;;;;5023643;28;20233;-33
2023/03/13 04:03:12;;;;;;;1.97;1.13;;;10.10;99.90;;;;;;5032410;28;20870;-32
2023/03/13 04:05:38;;;;;;;3.43;1.13;;;10.10;99.90;;;;;;5024720;28;20185;-32
2023/03/13 04:08:05;;;;;;;3.70;2.23;;;10.10;99.90;;;;;;5032132;28;20170;-32
2023/03/13 04:10:31;;;;;;;2.30;1.33;;;10.10;99.90;;;;;;5011665;28;20188;-32
2023/03/13 04:12:57;;;;;;;1.83;1.00;;;10.10;99.90;;;;;;5031970;28;20182;-32
2023/03/13 04:15:23;;;;;;;2.73;1.17;;;10.20;99.90;;;;;;5029615;28;20213;-32
2023/03/13 04:17:49;;;;;;;2.23;0.90;;;10.20;99.90;;;;;;5040278;28;20181;-32
2023/03/13 04:20:21;;;;;;;3.00;1.10;;;10.30;99.90;;;;;;5014537;28;20178;-32
2023/03/13 04:22:47;;;;;;;1.90;1.07;;;10.30;99.90;;;;;;5013200;28;20202;-32
2023/03/13 04:25:14;;;;;;;2.17;1.20;;;10.30;99.90;;;;;;5016292;28;20284;-31
2023/03/13 04:27:40;;;;;;;2.87;1.60;;;10.40;99.90;;;;;;5032721;28;20186;-32
2023/03/13 04:30:08;;;;;;;3.57;1.40;;;10.50;99.90;;;;;;5032507;28;20179;-30
2023/03/13 04:33:01;;;;;;;5.00;2.73;;;10.60;99.90;;;;;;5018617;28;20193;-31
2023/03/13 04:35:39;;;;;;;2.57;1.63;;;10.60;99.90;;;;;;5010747;28;20212;-31
2023/03/13 04:38:44;;;;;;;3.70;2.30;;;10.60;99.90;;;;;;5032152;28;20187;-32
2023/03/13 04:41:46;;;;;;;4.60;2.63;;;10.60;99.90;;;;;;4996580;28;20250;-31
2023/03/13 04:44:24;;;;;;;3.93;2.67;;;10.50;99.90;;;;;;5025872;28;20204;-32
2023/03/13 04:47:10;;;;;;;4.27;1.23;;;10.50;99.90;;;;;;5032011;28;20195;-33
2023/03/13 04:49:47;;;;;;;2.43;1.30;;;10.50;99.90;;;;;;5028056;28;20169;-31
2023/03/13 04:52:29;;;;;;;2.17;1.07;;;10.50;99.90;;;;;;5027419;28;20255;-30
2023/03/13 04:55:20;;;;;;;1.70;0.80;;;10.50;99.90;;;;;;5027028;28;20218;-32
2023/03/13 04:57:54;;;;;;;1.50;1.20;;;10.50;99.90;;;;;;5038389;28;20181;-32
2023/03/13 05:00:43;;;;;;;3.63;1.33;;;10.50;99.90;;;;;;5034472;28;20284;-31
2023/03/13 05:03:11;;;;;;;3.17;1.80;;;10.40;99.90;;;;;;5062596;28;20190;-32
2023/03/13 05:05:55;;;;;;;6.03;2.00;;;10.40;99.90;;;;;;5043092;28;20179;-31
2023/03/13 05:08:39;;;;;;;2.40;1.80;;;10.40;99.90;;;;;;5042386;28;20181;-31
2023/03/13 05:11:24;;;;;;;2.93;1.00;;;10.40;99.90;;;;;;5045899;28;20189;-32
2023/03/13 05:14:03;;;;;;;2.53;1.00;;;10.40;99.90;;;;;;5017449;28;20210;-32
2023/03/13 05:16:29;;;;;;;1.77;1.00;;;10.50;99.90;;;;;;5035014;28;20187;-31
2023/03/13 05:19:13;;;;;;;3.27;1.00;;;10.50;99.90;;;;;;5033573;28;20213;-31
2023/03/13 05:22:08;;;;;;;2.10;1.00;;;10.50;99.90;;;;;;5028125;28;20183;-31
2023/03/13 05:24:47;;;;;;;2.90;1.10;;;10.50;99.90;;;;;;5035250;28;20195;-31
2023/03/13 05:27:36;;;;;;;2.73;1.20;;;10.50;99.90;;;;;;5042178;28;20183;-32
2023/03/13 05:30:29;;;;;;;1.80;1.20;;;10.50;99.90;;;;;;5022771;28;20714;-31
2023/03/13 05:33:21;;;;;;;4.50;1.33;;;10.50;99.90;;;;;;5031094;28;20266;-31
2023/03/13 05:36:00;;;;;;;3.47;1.30;;;10.50;99.90;;;;;;5033969;28;20198;-31
2023/03/13 05:39:01;;;;;;;4.70;1.70;;;10.50;99.90;;;;;;5026826;28;20184;-32
2023/03/13 05:42:06;;;;;;;5.20;1.30;;;10.50;99.90;;;;;;4951646;29;20527;-32
2023/03/13 05:44:46;;;;;;;2.20;0.87;;;10.60;99.90;;;;;;4934149;29;20250;-31
2023/03/13 05:47:26;;;;;;;2.50;1.27;;;10.60;99.90;;;;;;5019098;28;20244;-30
2023/03/13 05:50:15;;;;;;;1.00;0.90;;;10.70;99.90;;;;;;5021211;28;20173;-33
2023/03/13 05:52:53;;;;;;;2.93;0.90;;;10.70;99.90;;;;;;5059073;28;20192;-32
2023/03/13 05:55:51;;;;;;;2.20;1.03;;;10.80;99.90;;;;;;5026423;28;20210;-32
2023/03/13 05:58:55;;;;;;;2.63;1.00;;;10.80;99.90;;;;;;4979566;28;20196;-33
2023/03/13 06:01:40;;;;;;;1.50;0.90;;;10.90;99.90;;;;;;4994117;28;20238;-32
2023/03/13 06:04:19;;;;;;;2.27;1.40;;;10.90;99.90;;;;;;5011163;28;20575;-32
2023/03/13 06:06:46;;;;;;;2.50;1.40;;;10.90;99.90;;;;;;5022051;28;20183;-33
2023/03/13 06:09:14;;;;;;;1.67;1.10;;;11.00;99.90;;;;;;5031301;28;20222;-32
2023/03/13 06:11:40;;;;;;;2.77;1.03;;;11.00;99.90;;;;;;5045981;28;20657;-32
2023/03/13 06:14:06;;;;;;;1.80;1.10;;;11.00;99.90;;;;;;5024716;28;20198;-31
2023/03/13 06:16:53;;;;;;;2.47;1.20;;;11.00;99.90;;;;;;5035905;28;20180;-31
2023/03/13 06:19:21;;;;;;;1.23;0.80;;;11.00;99.90;;;;;;5025454;28;20209;-31
2023/03/13 06:21:47;;;;;;;2.73;1.07;;;11.00;99.90;;;;;;5024588;28;20544;-32
2023/03/13 06:24:16;;;;;;;1.40;0.90;;;11.00;99.90;;;;;;5042164;28;20202;-32
2023/03/13 06:26:43;;;;;;;1.10;0.90;;;11.00;99.90;;;;;;5052169;28;20185;-32
2023/03/13 06:29:10;;;;;;;4.20;1.03;;;11.10;99.90;;;;;;5027147;28;20199;-31
2023/03/13 06:31:36;;;;;;;1.90;1.03;;;11.10;99.90;;;;;;5023973;28;20167;-31
2023/03/13 06:34:01;;;;;;;2.57;1.10;;;11.10;99.90;;;;;;5030393;28;20198;-32
2023/03/13 06:36:27;;;;;;;2.83;1.43;;;11.10;99.90;;;;;;5030565;28;20208;-32
2023/03/13 06:38:53;;;;;;;1.23;0.90;;;11.10;99.90;;;;;;5008422;28;20173;-32
2023/03/13 06:41:19;;;;;;;2.03;1.10;;;11.20;99.90;;;;;;5023603;28;20222;-32
2023/03/13 06:43:45;;;;;;;1.57;1.13;;;11.20;99.90;;;;;;5055806;28;20192;-33
2023/03/13 06:46:19;;;;;;;2.70;1.03;;;11.20;99.90;;;;;;5021881;28;20193;-31
2023/03/13 06:48:45;;;;;;;1.57;1.00;;;11.30;99.90;;;;;;5021137;28;20179;-32
2023/03/13 06:51:16;;;;;;;1.30;1.00;;;11.40;99.90;;;;;;5039407;28;20187;-31
2023/03/13 06:53:42;;;;;;;1.50;0.97;;;11.40;99.90;;;;;;5020157;28;20593;-33
2023/03/13 06:56:09;;;;;;;1.80;0.70;;;11.40;99.90;;;;;;5029795;28;20216;-33
2023/03/13 06:58:35;;;;;;;2.60;0.57;;;11.50;99.90;;;;;;5043138;28;20179;-33
2023/03/13 07:01:12;;;;;;;1.60;0.60;;;11.50;99.90;;;;;;5041322;28;20565;-32
2023/03/13 07:03:42;;;;;;;1.00;0.70;;;11.50;99.90;;;;;;5027218;28;20190;-31
2023/03/13 07:06:09;;;;;;;0.77;0.70;;;11.60;99.90;;;;;;5007784;28;20248;-31
2023/03/13 07:08:36;;;;;;;0.77;0.60;;;11.60;99.90;;;;;;5038693;28;20183;-31
2023/03/13 07:11:04;;;;;;;2.03;0.70;;;11.70;99.90;;;;;;5019144;28;20259;-31
2023/03/13 07:13:30;;;;;;;1.43;1.07;;;11.70;99.90;;;;;;5033815;28;20203;-33
2023/03/13 07:16:00;;;;;;;1.30;1.00;;;11.80;99.90;;;;;;5033242;28;20214;-32
2023/03/13 07:18:26;;;;;;;1.57;0.83;;;11.80;99.90;;;;;;5049907;28;20264;-32
2023/03/13 07:20:56;;;;;;;0.77;0.67;;;11.90;99.90;;;;;;5047925;28;20243;-33
2023/03/13 07:23:23;;;;;;;1.57;0.60;;;11.90;99.90;;;;;;5051028;28;20210;-32
2023/03/13 07:25:54;;;;;;;1.27;0.60;;;12.00;99.90;;;;;;5050813;28;20240;-32
2023/03/13 07:28:21;;;;;;;0.97;0.70;;;12.10;99.90;;;;;;5052844;28;20197;-31
2023/03/13 07:30:47;;;;;;;2.20;0.90;;;12.20;99.90;;;;;;5040531;28;20179;-31
2023/03/13 07:33:13;;;;;;;0.93;0.60;;;12.20;99.90;;;;;;5031755;28;20223;-31
2023/03/13 07:35:39;;;;;;;1.63;0.50;;;12.30;99.90;;;;;;5060218;28;20219;-32
2023/03/13 07:38:04;;;;;;;1.37;0.70;;;12.40;99.90;;;;;;5053568;28;20264;-31
2023/03/13 07:40:31;;;;;;;1.80;0.70;;;12.50;99.90;;;;;;5041005;28;20182;-31
2023/03/13 07:42:56;;;;;;;2.63;1.00;;;12.50;99.90;;;;;;5025975;28;20188;-32
2023/03/13 07:45:22;;;;;;;1.23;0.70;;;12.50;99.90;;;;;;5041459;28;20189;-31
2023/03/13 07:47:48;;;;;;;1.23;0.70;;;12.60;99.90;;;;;;5040940;28;20177;-32
2023/03/13 07:50:14;;;;;;;1.83;0.60;;;12.60;99.90;;;;;;5025511;28;20192;-32
2023/03/13 07:52:40;;;;;;;0.53;0.53;;;12.70;99.90;;;;;;5058803;28;20197;-32
2023/03/13 07:55:06;;;;;;;0.60;0.60;;;12.70;99.90;;;;;;5060707;28;20288;-32
2023/03/13 07:57:32;;;;;;;0.80;0.70;;;12.80;99.90;;;;;;5058766;28;20176;-32
2023/03/13 07:59:58;;;;;;;0.90;0.80;;;12.80;99.90;;;;;;5059837;28;20234;-32
2023/03/13 08:02:24;;;;;;;1.13;0.77;;;12.80;99.90;;;;;;5057599;28;20177;-32
2023/03/13 08:04:52;;;;;;;2.80;0.80;;;12.80;99.90;;;;;;5035705;28;20212;-32
2023/03/13 08:07:18;;;;;;;1.93;0.60;;;12.90;99.90;;;;;;5047805;28;20246;-31
2023/03/13 08:09:44;;;;;;;1.57;0.87;;;12.80;99.90;;;;;;5031847;28;20272;-32
2023/03/13 08:12:10;;;;;;;2.37;1.00;;;12.90;99.90;;;;;;5058016;28;20197;-31
2023/03/13 08:14:36;;;;;;;1.00;0.80;;;12.90;99.90;;;;;;5060580;28;20213;-31
2023/03/13 08:17:02;;;;;;;1.50;0.80;;;12.90;99.90;;;;;;5024330;28;20176;-32
2023/03/13 08:19:28;;;;;;;0.70;0.70;;;12.90;99.90;;;;;;5059210;28;20174;-32
2023/03/13 08:21:54;;;;;;;0.97;0.87;;;12.90;99.90;;;;;;5041814;28;20184;-32
2023/03/13 08:24:20;;;;;;;1.27;0.80;;;13.00;99.90;;;;;;5043044;28;20269;-32
2023/03/13 08:26:46;;;;;;;0.90;0.70;;;13.00;99.90;;;;;;5021632;28;20260;-33
2023/03/13 08:29:13;;;;;;;1.43;0.70;;;13.00;99.90;;;;;;5026538;28;20191;-33
2023/03/13 08:31:46;;;;;;;1.20;1.00;;;13.10;99.90;;;;;;5044194;28;20219;-31
2023/03/13 08:34:13;;;;;;;1.70;0.67;;;13.10;99.90;;;;;;5060307;28;20255;-31
2023/03/13 08:36:40;;;;;;;0.93;0.83;;;13.20;99.90;;;;;;5045862;28;20178;-32
2023/03/13 08:39:11;;;;;;;1.03;0.70;;;13.20;99.90;;;;;;5026382;28;20170;-32
2023/03/13 08:41:39;;;;;;;1.70;0.70;;;13.30;99.90;;;;;;5060920;28;20249;-32
2023/03/13 08:44:06;;;;;;;0.80;0.70;;;13.30;99.90;;;;;;5044461;28;20193;-32
2023/03/13 08:46:34;;;;;;;1.00;0.70;;;13.30;99.90;;;;;;5045342;28;20178;-33
2023/03/13 08:49:00;;;;;;;1.27;0.80;;;13.40;99.90;;;;;;5063021;28;20182;-31
2023/03/13 08:51:28;;;;;;;1.40;1.10;;;13.40;99.90;;;;;;5062611;28;20192;-32
2023/03/13 08:53:54;;;;;;;1.20;1.07;;;13.50;99.90;;;;;;5047121;28;20283;-33
2023/03/13 08:56:26;;;;;;;1.37;0.80;;;13.50;99.90;;;;;;5044732;28;20260;-33
2023/03/13 08:58:54;;;;;;;1.87;0.70;;;13.60;99.90;;;;;;5036652;28;20186;-33
2023/03/13 09:01:22;;;;;;;1.37;0.70;;;13.70;99.90;;;;;;5025292;28;20189;-32
2023/03/13 09:03:49;;;;;;;1.17;0.83;;;13.70;99.90;;;;;;5055994;28;20205;-32
2023/03/13 09:06:15;;;;;;;0.87;0.57;;;13.70;99.90;;;;;;5045866;28;20178;-33
2023/03/13 09:08:41;;;;;;;1.53;1.00;;;13.80;99.90;;;;;;5027661;28;20192;-33
2023/03/13 09:11:10;;;;;;;0.87;0.70;;;13.80;99.90;;;;;;5050890;28;20194;-33
2023/03/13 09:13:40;;;;;;;2.07;0.80;;;13.90;99.90;;;;;;5033858;28;20193;-33
2023/03/13 09:16:12;;;;;;;1.23;0.70;;;14.00;99.90;;;;;;5048390;28;20209;-31
2023/03/13 09:18:38;;;;;;;1.63;0.80;;;14.00;99.90;;;;;;5053365;28;20182;-32
2023/03/13 09:21:25;;;;;;;1.33;0.80;;;14.10;99.90;;;;;;5049776;28;20227;-32
2023/03/13 09:23:51;;;;;;;1.63;0.90;;;14.20;99.90;;;;;;5048928;28;20292;-32
2023/03/13 09:26:19;;;;;;;2.30;0.90;;;14.50;99.90;;;;;;5024893;28;20190;-32
2023/03/13 09:28:44;;;;;;;1.33;0.80;;;14.70;99.90;;;;;;5038049;28;20211;-32
2023/03/13 09:31:10;;;;;;;0.90;0.80;;;14.90;99.90;;;;;;5040207;28;20208;-32
2023/03/13 09:33:36;;;;;;;1.33;0.80;;;15.10;99.90;;;;;;5070939;28;20268;-32
2023/03/13 09:36:03;;;;;;;1.63;0.93;;;15.30;99.90;;;;;;5053933;28;20272;-32
2023/03/13 09:38:29;;;;;;;1.47;1.00;;;15.40;99.90;;;;;;5070761;28;20177;-32
2023/03/13 09:41:00;;;;;;;1.83;0.90;;;15.50;99.90;;;;;;5018652;28;20174;-32
2023/03/13 09:44:07;;;;;;;1.90;0.90;;;15.60;99.90;;;;;;5052551;28;20260;-32
2023/03/13 09:46:40;;;;;;;2.13;0.90;;;15.70;99.90;;;;;;5034887;28;20181;-33
2023/03/13 09:49:22;;;;;;;1.07;0.97;;;15.80;99.90;;;;;;5053055;28;20267;-32
2023/03/13 09:51:59;;;;;;;1.53;0.90;;;15.70;99.90;;;;;;5035137;28;20182;-31
2023/03/13 09:54:35;;;;;;;3.20;1.00;;;15.50;99.90;;;;;;5034417;28;20201;-32
2023/03/13 09:57:38;;;;;;;2.63;1.20;;;15.40;99.90;;;;;;5052706;28;20187;-32
2023/03/13 10:00:18;;;;;;;1.13;1.00;;;15.50;99.90;;;;;;4984975;28;20194;-31
2023/03/13 10:03:01;;;;;;;2.40;1.30;;;15.70;99.90;;;;;;5034956;28;20189;-32
2023/03/13 10:05:30;;;;;;;2.03;1.10;;;15.90;99.90;;;;;;5034466;28;20177;-32
2023/03/13 10:08:26;;;;;;;1.63;1.20;;;16.10;99.90;;;;;;5052722;28;20636;-32
2023/03/13 10:11:03;;;;;;;1.47;0.93;;;16.20;99.90;;;;;;5032472;28;20272;-31
2023/03/13 10:14:05;;;;;;;1.37;0.80;;;16.30;99.90;;;;;;5018468;28;20292;-32
2023/03/13 10:16:39;;;;;;;3.35;0.90;;;16.30;99.90;;;;;;5052065;28;20273;-32
2023/03/13 10:19:12;;;;;;;2.45;1.23;;;16.40;99.90;;;;;;5034509;28;20170;-33
2023/03/13 10:21:40;;;;;;;1.83;0.93;;;16.50;99.90;;;;;;5052336;28;20170;-32
2023/03/13 10:24:43;;;;;;;1.33;1.20;;;16.40;99.90;;;;;;5034309;28;20186;-32
2023/03/13 10:27:12;;;;;;;2.13;1.00;;;16.40;99.90;;;;;;5017954;28;20710;-32
2023/03/13 10:29:38;;;;;;;1.90;1.30;;;16.30;99.90;;;;;;5034059;28;20178;-32
2023/03/13 10:32:06;;;;;;;1.42;0.95;;;16.40;99.90;;;;;;5034686;28;20238;-32
2023/03/13 10:35:00;;;;;;;3.03;1.67;;;16.40;99.90;;;;;;5033998;28;20221;-32
2023/03/13 10:37:29;;;;;;;1.77;1.05;;;16.40;99.90;;;;;;5043172;28;20198;-32
2023/03/13 10:40:21;;;;;;;1.80;1.20;;;16.40;99.90;;;;;;5049232;28;20185;-32
2023/03/13 10:42:47;;;;;;;3.10;1.30;;;16.50;99.90;;;;;;5045379;28;20197;-31
2023/03/13 10:45:16;;;;;;;4.03;2.28;;;16.50;99.90;;;;;;5033773;28;20198;-32
2023/03/13 10:47:42;;;;;;;6.05;2.60;;;16.70;99.90;;;;;;5051925;28;20193;-32
2023/03/13 10:50:19;;;;;;;3.47;1.60;;;16.80;99.90;;;;;;5033789;28;20182;-32
2023/03/13 10:52:47;;;;;;;4.88;2.20;;;17.00;99.90;;;;;;5029699;28;20189;-32
2023/03/13 10:55:25;;;;;;;2.83;1.40;;;17.20;99.90;;;;;;5029999;28;20213;-32
2023/03/13 10:57:56;;;;;;;1.75;1.10;;;17.40;99.90;;;;;;5017452;28;20185;-32
2023/03/13 11:00:31;;;;;;;3.72;1.30;;;17.60;99.90;;;;;;5017289;28;20174;-32
2023/03/13 11:02:57;;;;;;;1.65;1.20;;;17.80;99.90;;;;;;5033707;28;20253;-32
2023/03/13 11:05:23;;;;;;;2.75;1.20;;;17.90;99.90;;;;;;5033160;28;20281;-32
2023/03/13 11:07:49;;;;;;;2.00;1.10;;;17.80;99.90;;;;;;5033777;28;20205;-32
2023/03/13 11:10:19;;;;;;;1.45;1.15;;;17.60;99.90;;;;;;5051298;28;20210;-32
2023/03/13 11:12:53;;;;;;;1.90;1.00;;;17.60;99.90;;;;;;5051652;28;20265;-33
2023/03/13 11:15:48;;;;;;;2.38;1.10;;;17.60;99.90;;;;;;5016709;28;20240;-33
2023/03/13 11:18:35;;;;;;;0.95;0.82;;;17.70;99.90;;;;;;5024421;28;20182;-33
2023/03/13 11:21:04;;;;;;;2.13;0.90;;;17.70;99.90;;;;;;5016962;28;20177;-33
2023/03/13 11:23:38;;;;;;;1.67;1.05;;;17.80;99.90;;;;;;5033164;28;20289;-32
2023/03/13 11:26:25;;;;;;;3.13;1.40;;;17.90;99.90;;;;;;5016679;28;20217;-34
2023/03/13 11:29:01;;;;;;;1.27;1.05;;;18.00;99.90;;;;;;5016776;28;20166;-33
2023/03/13 11:31:45;;;;;;;3.35;1.42;;;18.10;99.90;;;;;;5016781;28;20228;-34
2023/03/13 11:34:26;;;;;;;2.25;1.02;;;18.20;99.90;;;;;;5051037;28;20686;-33
2023/03/13 11:37:03;;;;;;;2.95;1.17;;;18.40;99.90;;;;;;5051414;28;20239;-34
2023/03/13 11:39:50;;;;;;;2.42;1.30;;;18.60;99.90;;;;;;5013914;28;20213;-33
2023/03/13 11:42:24;;;;;;;2.22;1.35;;;18.80;99.90;;;;;;5024801;28;20224;-34
2023/03/13 11:45:02;;;;;;;2.45;1.17;;;19.00;99.90;;;;;;5016414;28;20209;-34
2023/03/13 11:47:52;;;;;;;1.33;1.00;;;19.20;99.90;;;;;;5050839;28;20181;-34
2023/03/13 11:50:43;;;;;;;3.13;1.08;;;19.20;99.90;;;;;;5016500;28;20203;-33
2023/03/13 11:53:29;;;;;;;2.13;1.40;;;19.30;99.90;;;;;;5016332;28;20212;-34
2023/03/13 11:56:06;;;;;;;3.85;1.40;;;19.40;99.90;;;;;;5021948;28;20236;-34
2023/03/13 11:58:56;;;;;;;2.47;1.25;;;19.50;99.90;;;;;;5040096;28;20174;-34
2023/03/13 12:01:51;;;;;;;2.75;1.30;;;19.60;99.90;;;;;;5037388;28;20205;-35
2023/03/13 12:04:26;;;;;;;3.15;1.17;;;19.70;99.90;;;;;;5026173;28;20210;-34
2023/03/13 12:07:09;;;;;;;2.53;1.20;;;19.80;99.90;;;;;;5037368;28;20173;-35
2023/03/13 12:10:00;;;;;;;2.40;1.30;;;19.70;99.90;;;;;;5034011;28;20181;-34
2023/03/13 12:12:40;;;;;;;2.67;1.33;;;19.90;99.90;;;;;;5054456;28;20198;-34
2023/03/13 12:15:24;;;;;;;3.95;1.30;;;19.90;99.90;;;;;;5036196;28;20205;-34
2023/03/13 12:18:26;;;;;;;2.90;1.30;;;19.90;99.90;;;;;;5054566;28;20257;-36
2023/03/13 12:21:11;;;;;;;3.13;1.23;;;20.10;99.90;;;;;;5048540;28;20185;-36
2023/03/13 12:23:44;;;;;;;2.38;1.33;;;20.20;99.90;;;;;;5052355;28;20272;-35
2023/03/13 12:26:30;;;;;;;2.38;1.35;;;20.30;99.90;;;;;;5031972;28;20186;-34
2023/03/13 12:29:04;;;;;;;2.25;1.42;;;20.40;99.90;;;;;;5022934;28;20183;-35
2023/03/13 12:31:42;;;;;;;2.17;1.45;;;20.50;99.90;;;;;;5047759;28;20214;-35
2023/03/13 12:34:26;;;;;;;1.70;1.08;;;20.60;99.90;;;;;;5047139;28;20193;-35
2023/03/13 12:37:11;;;;;;;2.63;1.10;;;20.60;99.90;;;;;;5033539;28;20221;-34
2023/03/13 12:39:46;;;;;;;1.48;0.95;;;20.70;99.90;;;;;;5050886;28;20273;-34
2023/03/13 12:42:39;;;;;;;2.67;1.00;;;20.60;99.90;;;;;;5029734;28;20197;-36
2023/03/13 12:45:07;;;;;;;2.25;1.10;;;20.60;99.90;;;;;;5049982;28;20217;-40
2023/03/13 12:48:02;;;;;;;1.70;1.30;;;20.70;99.90;;;;;;5061964;28;20288;-36
2023/03/13 12:50:35;;;;;;;2.97;1.40;;;20.60;99.90;;;;;;5026377;28;20179;-35
2023/03/13 12:53:31;;;;;;;2.20;1.23;;;20.60;99.90;;;;;;4999814;28;20236;-35
2023/03/13 12:56:09;;;;;;;2.35;1.20;;;20.70;99.90;;;;;;5009428;28;20248;-35
2023/03/13 12:58:47;;;;;;;3.85;1.10;;;20.80;99.90;;;;;;5036058;28;20177;-34
2023/03/13 13:01:35;;;;;;;1.20;0.90;;;21.00;99.90;;;;;;5024904;28;20225;-34
2023/03/13 13:04:05;;;;;;;1.90;1.10;;;21.00;99.90;;;;;;5033647;28;20229;-36
2023/03/13 13:07:01;;;;;;;1.92;0.90;;;20.90;99.90;;;;;;5053031;28;20189;-36
2023/03/13 13:09:38;;;;;;;1.85;0.93;;;20.80;99.90;;;;;;5021484;28;20182;-35
2023/03/13 13:12:24;;;;;;;1.55;1.13;;;20.80;99.90;;;;;;5015242;28;20212;-36
2023/03/13 13:14:49;;;;;;;1.48;0.88;;;20.60;99.90;;;;;;5024875;28;20214;-38
2023/03/13 13:17:34;;;;;;;1.70;1.20;;;20.50;99.90;;;;;;5024954;28;20208;-35
2023/03/13 13:20:31;;;;;;;2.13;0.90;;;20.40;99.90;;;;;;5055915;28;20256;-34
2023/03/13 13:23:19;;;;;;;4.22;0.80;;;20.20;99.90;;;;;;5056361;28;20289;-35